N223TN KASH-
Flight info
| Callsign | N223TN |
|---|---|
| Flight time | N/A |
| Altitude | VFR |
| Route | |
| Aircraft |
Departure
| Time | 2026-04-26 22:10 |
|---|---|
| Airport | Nashua Airport / Boire Field (KASH) |
Arrival
| Time | N/A |
|---|---|
| Airport | - |
| Time | Latitude | Longitude | Altitude | Speed | Heading |
|---|---|---|---|---|---|
| 2026-04-26 22:03 | 42.78243 | -71.51984 | 198 ft | 0 kts | 125° |
| 2026-04-26 22:05 | 42.78235 | -71.52031 | 200 ft | 16 kts | 301° |
| 2026-04-26 22:05 | 42.78301 | -71.52066 | 199 ft | 9 kts | 31° |
| 2026-04-26 22:05 | 42.78316 | -71.52054 | 198 ft | 0 kts | 23° |
| 2026-04-26 22:05 | 42.78317 | -71.52053 | 198 ft | 3 kts | 27° |
| 2026-04-26 22:06 | 42.78370 | -71.52065 | 198 ft | 17 kts | 297° |
| 2026-04-26 22:06 | 42.78438 | -71.52202 | 199 ft | 15 kts | 298° |
| 2026-04-26 22:06 | 42.78486 | -71.52306 | 200 ft | 10 kts | 300° |
| 2026-04-26 22:06 | 42.78521 | -71.52374 | 200 ft | 7 kts | 329° |
| 2026-04-26 22:07 | 42.78604 | -71.52415 | 200 ft | 9 kts | 20° |
| 2026-04-26 22:07 | 42.78621 | -71.52401 | 200 ft | 0 kts | 34° |
| 2026-04-26 22:09 | 42.78634 | -71.52389 | 200 ft | 9 kts | 33° |
| 2026-04-26 22:09 | 42.78676 | -71.52322 | 200 ft | 5 kts | 126° |
| 2026-04-26 22:09 | 42.78548 | -71.52060 | 197 ft | 70 kts | 122° |
| 2026-04-26 22:09 | 42.78199 | -71.51336 | 312 ft | 105 kts | 122° |
| 2026-04-26 22:10 | 42.77707 | -71.50419 | 447 ft | 126 kts | 126° |
| 2026-04-26 22:10 | 42.77154 | -71.49444 | 689 ft | 134 kts | 126° |
| 2026-04-26 22:10 | 42.76571 | -71.48428 | 920 ft | 139 kts | 126° |
| 2026-04-26 22:10 | 42.75912 | -71.47450 | 1140 ft | 145 kts | 145° |
| 2026-04-26 22:11 | 42.74940 | -71.46998 | 1373 ft | 148 kts | 162° |
| 2026-04-26 22:11 | 42.73941 | -71.46676 | 1616 ft | 149 kts | 165° |
| 2026-04-26 22:11 | 42.72910 | -71.46463 | 1860 ft | 149 kts | 168° |
| 2026-04-26 22:11 | 42.71875 | -71.46277 | 2102 ft | 149 kts | 168° |
| 2026-04-26 22:12 | 42.70839 | -71.46088 | 2350 ft | 149 kts | 168° |
| 2026-04-26 22:12 | 42.69809 | -71.45903 | 2596 ft | 150 kts | 168° |
| 2026-04-26 22:12 | 42.68770 | -71.45718 | 2842 ft | 151 kts | 168° |
| 2026-04-26 22:12 | 42.67714 | -71.45529 | 3093 ft | 154 kts | 168° |
| 2026-04-26 22:13 | 42.66635 | -71.45336 | 3343 ft | 157 kts | 168° |
| 2026-04-26 22:13 | 42.65533 | -71.45140 | 3496 ft | 162 kts | 168° |
| 2026-04-26 22:13 | 42.64409 | -71.44936 | 3502 ft | 163 kts | 168° |
| 2026-04-26 22:13 | 42.63267 | -71.44727 | 3501 ft | 165 kts | 168° |
| 2026-04-26 22:14 | 42.62124 | -71.44621 | 3502 ft | 166 kts | 175° |
| 2026-04-26 22:14 | 42.60958 | -71.44617 | 3503 ft | 167 kts | 176° |
| 2026-04-26 22:14 | 42.59782 | -71.44620 | 3503 ft | 167 kts | 176° |
| 2026-04-26 22:14 | 42.58623 | -71.44622 | 3503 ft | 165 kts | 176° |
| 2026-04-26 22:15 | 42.57484 | -71.44627 | 3504 ft | 163 kts | 176° |
| 2026-04-26 22:15 | 42.56345 | -71.44632 | 3505 ft | 161 kts | 176° |
| 2026-04-26 22:15 | 42.55232 | -71.44636 | 3505 ft | 160 kts | 176° |
| 2026-04-26 22:15 | 42.54115 | -71.44637 | 3508 ft | 160 kts | 176° |
| 2026-04-26 22:16 | 42.52979 | -71.44640 | 3504 ft | 160 kts | 176° |
| 2026-04-26 22:16 | 42.51869 | -71.44643 | 3506 ft | 159 kts | 176° |
| 2026-04-26 22:16 | 42.50756 | -71.44649 | 3504 ft | 159 kts | 176° |
| 2026-04-26 22:16 | 42.49649 | -71.44655 | 3504 ft | 159 kts | 176° |
| 2026-04-26 22:17 | 42.48538 | -71.44666 | 3505 ft | 160 kts | 176° |
| 2026-04-26 22:17 | 42.47427 | -71.44679 | 3507 ft | 159 kts | 176° |
| 2026-04-26 22:17 | 42.46299 | -71.44693 | 3509 ft | 159 kts | 176° |
| 2026-04-26 22:17 | 42.45182 | -71.44713 | 3509 ft | 159 kts | 176° |
| 2026-04-26 22:18 | 42.44081 | -71.44733 | 3507 ft | 159 kts | 176° |
| 2026-04-26 22:18 | 42.42963 | -71.44751 | 3507 ft | 159 kts | 176° |
| 2026-04-26 22:18 | 42.41858 | -71.44764 | 3510 ft | 159 kts | 176° |
| 2026-04-26 22:18 | 42.40740 | -71.44774 | 3507 ft | 159 kts | 176° |
| 2026-04-26 22:19 | 42.39629 | -71.44784 | 3506 ft | 159 kts | 176° |
| 2026-04-26 22:19 | 42.38520 | -71.44795 | 3507 ft | 159 kts | 176° |
| 2026-04-26 22:19 | 42.37410 | -71.44804 | 3504 ft | 160 kts | 176° |
| 2026-04-26 22:19 | 42.36302 | -71.44817 | 3502 ft | 160 kts | 176° |
| 2026-04-26 22:20 | 42.35155 | -71.44827 | 3368 ft | 168 kts | 176° |
| 2026-04-26 22:20 | 42.33976 | -71.44834 | 3199 ft | 167 kts | 176° |
| 2026-04-26 22:20 | 42.32837 | -71.44841 | 3021 ft | 161 kts | 176° |
| 2026-04-26 22:20 | 42.31784 | -71.44556 | 2824 ft | 151 kts | 143° |
| 2026-04-26 22:21 | 42.31211 | -71.43483 | 2633 ft | 139 kts | 99° |
| 2026-04-26 22:21 | 42.31267 | -71.42218 | 2524 ft | 135 kts | 77° |
| 2026-04-26 22:21 | 42.31469 | -71.40968 | 2511 ft | 133 kts | 76° |
| 2026-04-26 22:21 | 42.31677 | -71.39758 | 2511 ft | 132 kts | 76° |
| 2026-04-26 22:22 | 42.31883 | -71.38564 | 2512 ft | 131 kts | 76° |
| 2026-04-26 22:22 | 42.32091 | -71.37359 | 2511 ft | 130 kts | 76° |
| 2026-04-26 22:22 | 42.32292 | -71.36180 | 2510 ft | 130 kts | 76° |
| 2026-04-26 22:22 | 42.32496 | -71.34987 | 2509 ft | 129 kts | 76° |
| 2026-04-26 22:23 | 42.32698 | -71.33803 | 2507 ft | 129 kts | 76° |
| 2026-04-26 22:23 | 42.32897 | -71.32632 | 2510 ft | 129 kts | 76° |
| 2026-04-26 22:23 | 42.33100 | -71.31434 | 2489 ft | 131 kts | 76° |
| 2026-04-26 22:23 | 42.33293 | -71.30307 | 2289 ft | 127 kts | 76° |
| 2026-04-26 22:24 | 42.33502 | -71.29115 | 2129 ft | 131 kts | 76° |
| 2026-04-26 22:24 | 42.33712 | -71.27931 | 2049 ft | 128 kts | 76° |
| 2026-04-26 22:24 | 42.33917 | -71.26799 | 1831 ft | 124 kts | 76° |
| 2026-04-26 22:24 | 42.34126 | -71.25669 | 1551 ft | 124 kts | 76° |
| 2026-04-26 22:25 | 42.34330 | -71.24585 | 1509 ft | 118 kts | 76° |
| 2026-04-26 22:25 | 42.34530 | -71.23509 | 1510 ft | 117 kts | 76° |
| 2026-04-26 22:25 | 42.34723 | -71.22449 | 1513 ft | 116 kts | 76° |
| 2026-04-26 22:25 | 42.34912 | -71.21397 | 1513 ft | 115 kts | 76° |
| 2026-04-26 22:26 | 42.35102 | -71.20335 | 1513 ft | 115 kts | 76° |
| 2026-04-26 22:26 | 42.35290 | -71.19295 | 1507 ft | 115 kts | 76° |
| 2026-04-26 22:26 | 42.35483 | -71.18241 | 1512 ft | 114 kts | 76° |
| 2026-04-26 22:26 | 42.35675 | -71.17196 | 1513 ft | 114 kts | 76° |
| 2026-04-26 22:27 | 42.35710 | -71.16128 | 1516 ft | 114 kts | 96° |
| 2026-04-26 22:27 | 42.35597 | -71.15065 | 1514 ft | 115 kts | 97° |
| 2026-04-26 22:27 | 42.35475 | -71.14000 | 1515 ft | 115 kts | 97° |
| 2026-04-26 22:27 | 42.35351 | -71.12923 | 1515 ft | 115 kts | 97° |
| 2026-04-26 22:28 | 42.35227 | -71.11852 | 1452 ft | 119 kts | 97° |
| 2026-04-26 22:28 | 42.35141 | -71.10725 | 1328 ft | 118 kts | 89° |
| 2026-04-26 22:28 | 42.35260 | -71.09724 | 1288 ft | 98 kts | 72° |
| 2026-04-26 22:28 | 42.35475 | -71.08939 | 1235 ft | 82 kts | 69° |
| 2026-04-26 22:29 | 42.35782 | -71.08308 | 1122 ft | 90 kts | 50° |
| 2026-04-26 22:29 | 42.36263 | -71.07606 | 1137 ft | 107 kts | 49° |
| 2026-04-26 22:29 | 42.36748 | -71.06797 | 1084 ft | 111 kts | 68° |
| 2026-04-26 22:29 | 42.36867 | -71.05756 | 1003 ft | 119 kts | 85° |
| 2026-04-26 22:30 | 42.36806 | -71.04658 | 983 ft | 119 kts | 123° |
| 2026-04-26 22:30 | 42.36026 | -71.04387 | 912 ft | 130 kts | 188° |
| 2026-04-26 22:30 | 42.35171 | -71.04712 | 756 ft | 120 kts | 196° |
| 2026-04-26 22:30 | 42.34398 | -71.04868 | 587 ft | 106 kts | 158° |
| 2026-04-26 22:31 | 42.33891 | -71.04289 | 607 ft | 90 kts | 128° |
| 2026-04-26 22:31 | 42.33622 | -71.03590 | 636 ft | 82 kts | 102° |
| 2026-04-26 22:31 | 42.33759 | -71.02807 | 585 ft | 96 kts | 59° |
| 2026-04-26 22:31 | 42.34271 | -71.02200 | 347 ft | 97 kts | 32° |
| 2026-04-26 22:32 | 42.34906 | -71.01874 | 254 ft | 94 kts | 22° |
| 2026-04-26 22:32 | 42.35474 | -71.01604 | 126 ft | 82 kts | 24° |
| 2026-04-26 22:32 | 42.35988 | -71.01352 | 23 ft | 73 kts | 23° |
| 2026-04-26 22:32 | 42.36291 | -71.01208 | 13 ft | 11 kts | 312° |
| 2026-04-26 22:33 | 42.36330 | -71.01308 | 13 ft | 9 kts | 315° |
| 2026-04-26 22:33 | 42.36377 | -71.01310 | 13 ft | 9 kts | 18° |
| 2026-04-26 22:33 | 42.36473 | -71.01263 | 13 ft | 18 kts | 20° |
| 2026-04-26 22:34 | 42.36622 | -71.01189 | 10 ft | 25 kts | 21° |
| 2026-04-26 22:34 | 42.36785 | -71.01147 | 10 ft | 21 kts | 337° |
| 2026-04-26 22:34 | 42.36894 | -71.01283 | 10 ft | 22 kts | 315° |
| 2026-04-26 22:34 | 42.37008 | -71.01438 | 9 ft | 23 kts | 313° |
| 2026-04-26 22:35 | 42.37133 | -71.01599 | 9 ft | 25 kts | 313° |
| 2026-04-26 22:35 | 42.37259 | -71.01772 | 10 ft | 26 kts | 315° |
| 2026-04-26 22:35 | 42.37392 | -71.01952 | 10 ft | 27 kts | 315° |
| 2026-04-26 22:35 | 42.37494 | -71.02119 | 10 ft | 15 kts | 222° |
| 2026-04-26 22:36 | 42.37430 | -71.02064 | 10 ft | 12 kts | 134° |
| 2026-04-26 22:36 | 42.37424 | -71.02055 | 10 ft | 0 kts | 130° |
| 2026-04-26 22:41 | 42.37415 | -71.02048 | 10 ft | 1 kts | 219° |
| 2026-04-26 22:41 | 42.37407 | -71.02064 | 10 ft | 1 kts | 304° |
| 2026-04-26 22:42 | 42.37412 | -71.02075 | 10 ft | 0 kts | 346° |